Time;durP1;ratioP1;P1;durP2;ratioP2;P2;SDS_P1;SDS_P2;PMS_P1;PMS_P2;Temp;Humidity;BMP_temperature;BMP_pressure;BME280_temperature;BME280_humidity;BME280_pressure;Samples;Min_cycle;Max_cycle;Signal;HPM_P1;HPM_P2
2022/01/22 00:02:01;;;;;;;11.47;11.00;;;16.50;58.50;;;;;;4919444;29;20450;-50
2022/01/22 00:04:28;;;;;;;11.67;11.30;;;16.50;58.70;;;;;;4919195;29;20477;-51
2022/01/22 00:06:55;;;;;;;12.10;11.70;;;16.50;58.80;;;;;;4916942;29;20847;-52
2022/01/22 00:09:25;;;;;;;11.67;11.37;;;16.50;58.90;;;;;;4918180;29;20458;-49
2022/01/22 00:11:54;;;;;;;12.43;11.93;;;16.50;58.90;;;;;;4919458;29;20952;-50
2022/01/22 00:14:24;;;;;;;11.90;11.60;;;16.50;59.10;;;;;;4919103;29;20811;-52
2022/01/22 00:16:51;;;;;;;12.30;11.90;;;16.40;59.20;;;;;;4919115;29;21182;-50
2022/01/22 00:19:19;;;;;;;11.63;11.30;;;16.40;59.20;;;;;;4919009;29;20462;-50
2022/01/22 00:21:46;;;;;;;11.70;11.40;;;16.40;59.20;;;;;;4918196;29;20458;-52
2022/01/22 00:24:13;;;;;;;12.00;11.60;;;16.40;59.20;;;;;;4918214;29;20457;-52
2022/01/22 00:26:40;;;;;;;11.90;11.60;;;16.40;59.20;;;;;;4918847;29;20470;-50
2022/01/22 00:29:08;;;;;;;12.50;12.10;;;16.40;59.20;;;;;;4918788;29;20446;-52
2022/01/22 00:31:35;;;;;;;11.60;11.30;;;16.30;59.30;;;;;;4919471;29;20497;-51
2022/01/22 00:34:01;;;;;;;11.73;11.43;;;16.20;59.40;;;;;;4918974;29;20451;-50
2022/01/22 00:36:30;;;;;;;11.83;11.53;;;16.30;59.40;;;;;;4918810;29;20477;-54
2022/01/22 00:38:56;;;;;;;12.50;12.10;;;16.30;59.40;;;;;;4918599;29;20486;-52
2022/01/22 00:41:23;;;;;;;13.20;12.70;;;16.20;59.50;;;;;;4946087;23;20504;-49
2022/01/22 00:43:50;;;;;;;11.50;11.20;;;16.30;59.50;;;;;;4926860;29;20456;-50
2022/01/22 00:46:17;;;;;;;12.50;12.10;;;16.30;59.60;;;;;;4933735;29;20449;-51
2022/01/22 00:48:44;;;;;;;11.97;11.67;;;16.20;59.50;;;;;;4934051;29;20452;-49
2022/01/22 00:51:11;;;;;;;12.10;11.70;;;16.30;59.60;;;;;;4946581;28;20468;-49
2022/01/22 00:53:39;;;;;;;11.97;11.67;;;16.20;59.40;;;;;;4956595;28;20448;-49
2022/01/22 00:56:06;;;;;;;11.90;11.50;;;16.20;59.60;;;;;;4956445;28;20451;-53
2022/01/22 00:58:33;;;;;;;12.17;11.77;;;16.20;59.70;;;;;;4956431;28;20480;-49
2022/01/22 01:01:00;;;;;;;12.20;11.80;;;16.10;59.60;;;;;;4956462;28;20465;-50
2022/01/22 01:03:30;;;;;;;12.20;11.80;;;16.20;59.60;;;;;;4956494;28;20660;-50
2022/01/22 01:05:57;;;;;;;11.80;11.50;;;16.20;59.70;;;;;;4956200;28;20452;-50
2022/01/22 01:08:24;;;;;;;12.43;12.00;;;16.20;59.70;;;;;;4956249;28;20441;-49
2022/01/22 01:10:53;;;;;;;11.97;11.57;;;16.20;59.80;;;;;;4956161;28;20490;-51
2022/01/22 01:13:20;;;;;;;12.00;11.70;;;16.10;59.70;;;;;;4956283;28;20807;-49
2022/01/22 01:15:58;;;;;;;11.97;11.57;;;16.20;59.70;;;;;;4956099;28;20545;-51
2022/01/22 01:32:28;;;;;;;12.23;11.83;;;16.00;60.00;;;;;;4934526;29;20846;-49
2022/01/22 01:34:56;;;;;;;12.40;12.00;;;16.00;59.90;;;;;;4934403;29;20473;-50
2022/01/22 01:37:23;;;;;;;12.40;12.00;;;16.10;60.00;;;;;;4944710;28;20484;-49
2022/01/22 01:39:54;;;;;;;11.50;11.20;;;16.00;60.00;;;;;;4955674;28;20817;-49
2022/01/22 01:42:31;;;;;;;12.93;12.43;;;16.00;59.90;;;;;;4955774;28;20870;-49
2022/01/22 01:45:00;;;;;;;12.40;12.00;;;16.00;59.90;;;;;;4955570;28;20935;-51
2022/01/22 01:47:27;;;;;;;12.93;12.53;;;16.10;60.00;;;;;;4955741;28;20456;-54
2022/01/22 01:49:54;;;;;;;12.20;11.90;;;16.00;59.90;;;;;;4955561;28;20456;-49
2022/01/22 01:52:29;;;;;;;11.97;11.60;;;16.00;60.00;;;;;;4955531;28;20453;-50
2022/01/22 01:55:03;;;;;;;12.13;11.83;;;16.00;60.10;;;;;;4955441;28;20450;-51
2022/01/22 01:57:38;;;;;;;12.53;12.13;;;15.90;60.00;;;;;;4955382;28;20484;-49
2022/01/22 02:00:17;;;;;;;12.47;12.17;;;16.00;60.10;;;;;;4952335;28;20448;-51
2022/01/22 02:02:45;;;;;;;12.40;12.00;;;15.90;60.10;;;;;;4916734;29;20450;-49
2022/01/22 02:05:12;;;;;;;12.57;12.20;;;16.00;61.40;;;;;;4917059;29;20502;-49
2022/01/22 02:07:41;;;;;;;13.10;12.60;;;16.00;63.30;;;;;;4917175;29;20545;-49
2022/01/22 02:10:13;;;;;;;12.63;12.30;;;16.00;63.50;;;;;;4920304;29;20546;-49
2022/01/22 02:13:37;;;;;;;13.20;12.70;;;16.00;63.70;;;;;;4935775;29;20541;-49
2022/01/22 02:23:53;;;;;;;12.07;11.77;;;16.20;64.70;;;;;;4916903;29;20840;-49
2022/01/22 02:26:20;;;;;;;11.80;11.50;;;16.10;64.80;;;;;;4916594;29;20466;-49
2022/01/22 02:28:50;;;;;;;13.80;13.40;;;16.10;65.20;;;;;;4916671;29;20450;-49
2022/01/22 02:31:25;;;;;;;12.80;12.27;;;16.20;65.40;;;;;;4931899;29;20843;-48
2022/01/22 02:33:58;;;;;;;12.30;11.90;;;16.20;65.40;;;;;;4935660;29;20471;-49
2022/01/22 02:36:32;;;;;;;12.57;12.07;;;16.20;65.60;;;;;;4935410;29;20457;-49
2022/01/22 02:39:05;;;;;;;12.53;12.13;;;16.10;65.50;;;;;;4935562;29;20495;-49
2022/01/22 02:41:33;;;;;;;11.60;11.30;;;16.10;66.00;;;;;;4917814;29;20478;-49
2022/01/22 02:44:01;;;;;;;12.70;12.30;;;16.10;66.20;;;;;;4916648;29;20952;-49
2022/01/22 02:46:31;;;;;;;13.00;12.50;;;16.10;66.50;;;;;;4916236;29;20526;-49
2022/01/22 02:48:58;;;;;;;11.93;11.63;;;16.10;66.80;;;;;;4916514;29;20455;-49
2022/01/22 02:51:28;;;;;;;13.87;13.23;;;16.00;67.20;;;;;;4932208;29;20824;-49
2022/01/22 02:53:55;;;;;;;12.70;12.10;;;16.00;67.90;;;;;;4935207;29;20445;-49
2022/01/22 02:56:23;;;;;;;12.20;11.80;;;16.00;68.00;;;;;;4935046;29;20508;-49
2022/01/22 02:58:51;;;;;;;12.93;12.47;;;16.00;67.80;;;;;;4935120;29;20573;-49
2022/01/22 03:01:18;;;;;;;12.10;11.80;;;16.00;68.10;;;;;;4933209;29;20466;-49
2022/01/22 03:03:46;;;;;;;13.53;12.93;;;16.00;68.50;;;;;;4935111;29;20806;-49
2022/01/22 03:06:13;;;;;;;13.00;12.60;;;16.10;68.30;;;;;;4934912;29;20461;-50
2022/01/22 03:08:44;;;;;;;12.17;11.87;;;16.10;68.30;;;;;;4932731;29;20445;-50
2022/01/22 03:11:19;;;;;;;12.10;11.70;;;16.00;68.40;;;;;;4915947;29;20463;-49
2022/01/22 03:16:43;;;;;;;12.77;12.33;;;15.90;69.20;;;;;;4907101;29;20956;-49
2022/01/22 03:19:16;;;;;;;13.20;12.70;;;16.00;69.80;;;;;;4921673;29;20501;-49
2022/01/22 03:21:56;;;;;;;13.10;12.70;;;16.00;69.70;;;;;;4934809;29;20474;-50
2022/01/22 03:27:22;;;;;;;13.50;13.00;;;15.80;70.10;;;;;;4934572;29;20429;-49
2022/01/22 03:29:50;;;;;;;13.00;12.60;;;15.80;70.50;;;;;;4923502;29;20963;-49
2022/01/22 03:32:19;;;;;;;12.90;12.50;;;15.90;70.80;;;;;;4915674;29;20890;-49
2022/01/22 03:34:55;;;;;;;13.03;12.53;;;15.90;70.90;;;;;;4915661;29;20454;-50
2022/01/22 03:37:23;;;;;;;12.50;12.20;;;15.90;70.50;;;;;;4915560;29;20870;-51
2022/01/22 03:39:51;;;;;;;12.40;12.00;;;15.90;70.90;;;;;;4925998;29;20482;-49
2022/01/22 03:42:18;;;;;;;13.37;12.80;;;16.00;71.00;;;;;;4934604;29;20452;-52
2022/01/22 03:44:45;;;;;;;13.20;12.70;;;16.00;71.10;;;;;;4934515;29;20453;-50
2022/01/22 03:47:12;;;;;;;12.73;12.33;;;15.90;70.90;;;;;;4934319;29;20831;-50
2022/01/22 03:49:39;;;;;;;12.90;12.50;;;15.90;71.60;;;;;;4925095;29;20454;-48
2022/01/22 03:52:06;;;;;;;13.80;13.00;;;15.80;71.60;;;;;;4915313;29;20475;-48
2022/01/22 03:54:33;;;;;;;12.53;12.13;;;15.80;72.20;;;;;;4915392;29;20951;-49
2022/01/22 03:57:02;;;;;;;12.50;12.10;;;15.90;72.40;;;;;;4915281;29;20520;-49
2022/01/22 03:59:30;;;;;;;12.30;11.90;;;15.90;72.20;;;;;;4922610;29;20508;-49
2022/01/22 04:04:44;;;;;;;13.40;12.90;;;15.90;72.90;;;;;;4934343;29;20434;-49
2022/01/22 04:07:56;;;;;;;12.67;12.27;;;15.90;73.00;;;;;;4934166;29;20453;-49
2022/01/22 04:10:23;;;;;;;12.37;11.90;;;15.90;72.80;;;;;;4933172;29;20991;-49
2022/01/22 04:12:58;;;;;;;13.20;12.80;;;15.90;73.00;;;;;;4934150;29;20946;-49
2022/01/22 04:15:27;;;;;;;13.40;12.80;;;15.90;73.00;;;;;;4934023;29;20450;-49
2022/01/22 04:26:23;;;;;;;13.70;13.10;;;16.10;73.80;;;;;;4893771;29;20438;-49
2022/01/22 04:28:52;;;;;;;13.00;12.60;;;16.10;73.30;;;;;;4920585;29;20513;-49
2022/01/22 04:31:19;;;;;;;13.13;12.73;;;16.00;73.70;;;;;;4937541;29;20465;-49
2022/01/22 04:33:46;;;;;;;13.40;13.00;;;16.10;73.90;;;;;;4937775;29;20457;-49
2022/01/22 04:36:13;;;;;;;13.60;13.10;;;16.00;73.70;;;;;;4937589;29;20449;-49
2022/01/22 04:38:40;;;;;;;13.83;13.40;;;16.00;74.10;;;;;;4937221;29;20496;-50
2022/01/22 04:41:07;;;;;;;12.93;12.53;;;16.00;74.20;;;;;;4918461;29;20835;-49
2022/01/22 04:43:37;;;;;;;13.87;13.27;;;16.00;74.60;;;;;;4918637;29;20456;-49
2022/01/22 04:46:13;;;;;;;12.57;12.20;;;15.90;74.40;;;;;;4918365;29;20496;-49
2022/01/22 04:48:53;;;;;;;12.87;12.47;;;16.00;75.00;;;;;;4918547;29;20947;-49
2022/01/22 04:56:50;;;;;;;13.30;12.90;;;16.10;75.20;;;;;;4918280;29;20445;-49
2022/01/22 04:59:17;;;;;;;13.00;12.60;;;16.00;75.20;;;;;;4918490;29;20489;-49
2022/01/22 05:01:45;;;;;;;13.30;12.80;;;16.10;75.60;;;;;;4918312;29;20469;-49
2022/01/22 05:04:12;;;;;;;15.23;14.33;;;16.10;75.40;;;;;;4918205;29;20454;-49
2022/01/22 05:06:39;;;;;;;14.20;13.80;;;16.00;75.20;;;;;;4917995;29;20458;-50
2022/01/22 05:09:06;;;;;;;14.67;14.10;;;16.10;75.50;;;;;;4920815;29;20803;-50
2022/01/22 05:11:33;;;;;;;14.07;13.57;;;16.10;75.40;;;;;;4937025;29;20838;-49
2022/01/22 05:14:00;;;;;;;14.77;14.27;;;16.10;75.40;;;;;;4937154;29;20460;-49
2022/01/22 05:16:26;;;;;;;14.60;14.10;;;16.10;75.50;;;;;;4936917;29;20449;-50
2022/01/22 05:18:59;;;;;;;12.37;12.07;;;16.10;75.70;;;;;;4922625;29;20485;-49
2022/01/22 05:21:28;;;;;;;13.80;13.30;;;16.20;76.00;;;;;;4917930;29;20485;-49
2022/01/22 05:23:59;;;;;;;14.30;13.70;;;16.10;76.20;;;;;;4918002;29;20549;-49
2022/01/22 05:26:47;;;;;;;13.67;13.27;;;16.10;76.00;;;;;;4917715;29;20514;-50
2022/01/22 05:29:52;;;;;;;15.10;14.60;;;16.10;76.30;;;;;;4934108;29;20473;-49
2022/01/22 05:32:30;;;;;;;13.40;13.00;;;16.10;76.40;;;;;;4936565;29;20944;-49
2022/01/22 05:37:42;;;;;;;14.00;13.60;;;16.20;76.00;;;;;;4931413;29;20964;-49
2022/01/22 05:40:10;;;;;;;13.60;13.10;;;16.10;76.70;;;;;;4917434;29;20788;-49
2022/01/22 05:42:37;;;;;;;14.10;13.60;;;16.10;77.10;;;;;;4917595;29;20451;-49
2022/01/22 05:45:05;;;;;;;14.07;13.60;;;16.10;76.80;;;;;;4917427;29;20450;-49
2022/01/22 05:47:32;;;;;;;14.70;14.20;;;16.10;77.10;;;;;;4919825;29;20466;-51
2022/01/22 05:50:04;;;;;;;13.83;13.43;;;16.10;77.90;;;;;;4929287;29;20443;-49
2022/01/22 05:52:37;;;;;;;14.40;13.90;;;17.00;79.10;;;;;;4928629;29;20464;-50
2022/01/22 06:00:30;;;;;;;13.87;13.47;;;19.10;64.50;;;;;;4917158;29;20489;-50
2022/01/22 06:02:57;;;;;;;14.40;13.90;;;19.20;62.80;;;;;;4917193;29;20528;-49
2022/01/22 06:05:25;;;;;;;15.00;14.50;;;19.60;61.30;;;;;;4916986;29;20941;-49
2022/01/22 06:07:52;;;;;;;15.70;15.10;;;20.00;59.20;;;;;;4931140;29;20466;-52
2022/01/22 06:10:26;;;;;;;14.90;14.30;;;20.10;58.00;;;;;;4935995;29;20476;-51
2022/01/22 06:13:09;;;;;;;13.77;13.37;;;20.20;57.20;;;;;;4936073;29;20453;-49
2022/01/22 06:15:36;;;;;;;15.73;15.13;;;20.30;56.50;;;;;;4935853;29;20458;-50
2022/01/22 06:18:02;;;;;;;15.20;14.63;;;20.40;55.80;;;;;;4920372;29;20446;-50
2022/01/22 06:20:31;;;;;;;15.10;14.57;;;20.50;55.40;;;;;;4916803;29;20497;-49
2022/01/22 06:22:57;;;;;;;14.23;13.73;;;20.50;54.70;;;;;;4916962;29;20457;-49
2022/01/22 06:25:24;;;;;;;14.53;14.03;;;20.50;54.60;;;;;;4923669;29;20476;-50
2022/01/22 06:27:51;;;;;;;15.93;15.33;;;20.60;54.20;;;;;;4935769;29;20449;-49
2022/01/22 06:30:19;;;;;;;15.80;15.13;;;20.70;53.80;;;;;;4935644;29;20462;-49
2022/01/22 06:32:46;;;;;;;14.77;14.27;;;20.60;53.50;;;;;;4935723;29;20544;-50
2022/01/22 06:35:13;;;;;;;15.30;14.70;;;20.60;53.30;;;;;;4929368;29;20449;-51
2022/01/22 06:37:42;;;;;;;15.60;14.90;;;20.60;53.10;;;;;;4916662;29;20455;-50
2022/01/22 06:42:54;;;;;;;14.23;13.73;;;20.60;52.90;;;;;;4916582;29;20799;-48
2022/01/22 06:45:21;;;;;;;16.33;15.63;;;20.60;52.80;;;;;;4922570;29;20450;-49
2022/01/22 06:47:48;;;;;;;15.23;14.73;;;20.50;52.70;;;;;;4935336;29;20460;-48
2022/01/22 06:50:15;;;;;;;14.90;14.40;;;20.50;52.70;;;;;;4935177;29;20476;-48
2022/01/22 06:52:43;;;;;;;15.43;14.93;;;20.40;52.60;;;;;;4935356;29;20485;-48
2022/01/22 06:55:12;;;;;;;14.40;13.90;;;20.40;52.70;;;;;;4929830;29;20454;-48
2022/01/22 06:57:39;;;;;;;13.77;13.37;;;20.40;52.70;;;;;;4916265;29;20466;-48
2022/01/22 07:00:06;;;;;;;16.23;15.63;;;20.30;52.80;;;;;;4916003;29;21132;-50
2022/01/22 07:02:33;;;;;;;14.57;14.07;;;20.30;52.80;;;;;;4916128;29;20458;-52
2022/01/22 07:05:00;;;;;;;14.43;14.03;;;20.20;52.80;;;;;;4919131;29;20449;-48
2022/01/22 07:07:27;;;;;;;15.27;14.67;;;20.20;52.90;;;;;;4935085;29;20449;-48
2022/01/22 07:09:55;;;;;;;16.40;15.70;;;20.10;53.10;;;;;;4934906;29;20457;-52
2022/01/22 07:12:21;;;;;;;16.17;15.50;;;20.10;53.10;;;;;;4934981;29;20460;-48
2022/01/22 07:14:49;;;;;;;14.60;14.13;;;20.10;53.10;;;;;;4933141;29;20454;-48
2022/01/22 07:17:16;;;;;;;11.40;11.00;;;20.00;53.20;;;;;;4915754;29;20458;-51
2022/01/22 07:19:43;;;;;;;11.90;11.53;;;19.90;53.30;;;;;;4915823;29;20519;-48
2022/01/22 07:22:31;;;;;;;10.07;9.80;;;19.90;53.40;;;;;;4915788;29;20482;-48
2022/01/22 07:24:58;;;;;;;12.00;11.60;;;19.90;53.60;;;;;;4918060;29;20932;-48
2022/01/22 07:27:25;;;;;;;11.10;10.70;;;19.70;53.70;;;;;;4934096;29;20461;-48
2022/01/22 07:29:52;;;;;;;10.50;10.20;;;19.70;54.00;;;;;;4934677;29;20457;-51
2022/01/22 07:32:27;;;;;;;11.20;10.90;;;19.60;54.10;;;;;;4934621;29;20453;-48
2022/01/22 07:34:54;;;;;;;11.13;10.83;;;19.60;54.30;;;;;;4932510;29;20870;-48
2022/01/22 07:37:21;;;;;;;12.30;11.80;;;19.50;54.50;;;;;;4915512;29;20477;-48
2022/01/22 07:39:48;;;;;;;12.23;11.83;;;19.50;54.70;;;;;;4915544;29;20487;-48
2022/01/22 07:42:16;;;;;;;12.20;11.80;;;19.50;54.80;;;;;;4915503;29;20470;-48
2022/01/22 07:44:42;;;;;;;11.40;11.07;;;19.40;55.00;;;;;;4915485;29;20465;-48
2022/01/22 07:47:09;;;;;;;11.60;11.10;;;19.30;55.00;;;;;;4920315;29;20481;-51
2022/01/22 07:49:36;;;;;;;11.97;11.40;;;19.30;55.20;;;;;;4915541;29;20450;-47
2022/01/22 07:52:03;;;;;;;10.97;10.67;;;19.10;55.30;;;;;;4915374;29;20466;-49
2022/01/22 07:54:32;;;;;;;10.97;10.60;;;19.10;55.80;;;;;;4915542;29;20455;-48
2022/01/22 07:56:59;;;;;;;11.53;11.23;;;19.00;56.00;;;;;;4932825;29;20461;-48
2022/01/22 07:59:27;;;;;;;10.40;10.13;;;19.00;56.20;;;;;;4934244;29;20493;-48
2022/01/22 08:01:53;;;;;;;12.30;11.80;;;19.10;56.40;;;;;;4933842;29;20477;-48
2022/01/22 08:04:23;;;;;;;11.10;10.77;;;19.00;56.30;;;;;;4934412;29;20458;-48
2022/01/22 08:06:50;;;;;;;11.60;11.30;;;19.00;56.40;;;;;;4917515;29;20549;-50
2022/01/22 08:09:17;;;;;;;12.60;12.17;;;19.00;56.50;;;;;;4915398;29;20804;-50
2022/01/22 08:11:44;;;;;;;11.40;11.10;;;18.90;56.60;;;;;;4915259;29;20478;-48
2022/01/22 08:14:10;;;;;;;11.90;11.50;;;18.90;56.90;;;;;;4915122;29;20454;-50
2022/01/22 08:16:39;;;;;;;11.43;11.03;;;18.80;57.20;;;;;;4929173;29;20454;-52
2022/01/22 08:19:05;;;;;;;11.90;11.50;;;18.70;58.10;;;;;;4934061;29;20890;-50
2022/01/22 08:21:32;;;;;;;12.03;11.63;;;18.70;58.60;;;;;;4934203;29;20477;-48
2022/01/22 08:26:38;;;;;;;9.47;9.17;;;18.60;59.30;;;;;;5615065;23;20471;-55
2022/01/22 08:29:06;;;;;;;10.83;10.33;;;18.60;60.00;;;;;;4915072;29;20872;-50
2022/01/22 08:31:48;;;;;;;11.50;11.10;;;18.60;60.00;;;;;;4906861;29;20476;-50
2022/01/22 08:37:00;;;;;;;9.97;9.67;;;18.60;62.10;;;;;;4907148;29;20462;-51
2022/01/22 08:39:28;;;;;;;10.93;10.43;;;18.70;62.50;;;;;;4920641;29;20478;-49
2022/01/22 08:41:55;;;;;;;11.87;11.27;;;19.60;62.00;;;;;;4934674;29;20532;-49
2022/01/22 08:44:22;;;;;;;10.70;10.40;;;20.40;59.00;;;;;;4915298;29;20454;-50
2022/01/22 08:46:48;;;;;;;10.23;9.93;;;20.90;57.40;;;;;;4914907;29;20467;-50
2022/01/22 08:49:16;;;;;;;12.10;11.70;;;21.50;57.50;;;;;;4918576;29;20449;-51
2022/01/22 08:51:43;;;;;;;11.63;11.00;;;22.10;55.50;;;;;;4934381;29;20476;-50
2022/01/22 08:54:11;;;;;;;11.50;11.10;;;22.40;54.20;;;;;;4934671;29;20454;-50
2022/01/22 08:56:39;;;;;;;11.50;10.80;;;22.60;53.40;;;;;;4933914;29;20529;-50
2022/01/22 08:59:07;;;;;;;11.50;11.10;;;22.60;53.00;;;;;;4931655;29;20550;-49
2022/01/22 09:01:34;;;;;;;10.80;10.50;;;22.80;52.90;;;;;;4915060;29;20501;-52
2022/01/22 09:04:00;;;;;;;10.83;10.43;;;22.80;52.20;;;;;;4914975;29;20809;-52
2022/01/22 09:06:29;;;;;;;12.03;11.53;;;22.80;52.00;;;;;;4914934;29;20470;-49
2022/01/22 09:09:05;;;;;;;11.60;11.10;;;22.90;51.70;;;;;;4915437;29;20672;-52
2022/01/22 09:11:32;;;;;;;11.67;11.20;;;22.90;51.60;;;;;;4934120;29;20449;-52
2022/01/22 09:13:59;;;;;;;11.10;10.80;;;23.20;51.90;;;;;;4936982;29;20450;-51
2022/01/22 09:16:26;;;;;;;11.00;10.80;;;23.60;51.80;;;;;;4937507;29;20465;-54
2022/01/22 09:18:54;;;;;;;11.07;10.67;;;23.80;51.30;;;;;;4937058;29;20835;-52
2022/01/22 09:21:21;;;;;;;12.03;11.53;;;23.80;51.30;;;;;;4918123;29;20489;-53
2022/01/22 09:33:57;;;;;;;12.60;12.20;;;23.60;51.70;;;;;;4937346;29;20401;-42
2022/01/22 09:36:24;;;;;;;11.73;11.33;;;23.60;52.40;;;;;;4936989;29;20477;-41
2022/01/22 09:38:52;;;;;;;13.10;12.60;;;23.80;52.60;;;;;;4936972;29;20508;-41
2022/01/22 09:41:21;;;;;;;12.87;12.20;;;24.20;51.90;;;;;;4936445;29;20571;-41
2022/01/22 09:43:48;;;;;;;13.30;12.80;;;24.40;51.00;;;;;;4920545;29;20461;-44
2022/01/22 09:46:15;;;;;;;11.57;11.17;;;24.40;50.50;;;;;;4917668;29;20473;-41
2022/01/22 09:48:42;;;;;;;15.90;14.57;;;24.40;50.20;;;;;;4918224;29;20454;-45
2022/01/22 09:51:11;;;;;;;12.03;11.63;;;24.30;50.00;;;;;;4928531;29;20821;-41
2022/01/22 09:53:39;;;;;;;11.80;11.30;;;24.20;50.00;;;;;;4937116;29;20445;-45
2022/01/22 10:00:09;;;;;;;13.50;13.00;;;24.10;49.70;;;;;;4937941;29;20445;-48
2022/01/22 10:02:41;;;;;;;13.87;13.20;;;24.40;49.80;;;;;;4916712;29;20991;-54
2022/01/22 10:05:27;;;;;;;12.53;12.03;;;24.60;49.40;;;;;;4917730;29;20510;-42
2022/01/22 10:07:55;;;;;;;12.90;12.50;;;24.60;49.00;;;;;;4917294;29;20471;-42
2022/01/22 10:10:22;;;;;;;12.70;12.20;;;24.60;49.30;;;;;;4918161;29;20447;-40
2022/01/22 10:12:52;;;;;;;12.50;12.10;;;24.50;49.20;;;;;;4935746;29;20454;-42
2022/01/22 10:15:20;;;;;;;14.93;14.33;;;24.70;49.40;;;;;;4935379;29;20453;-42
2022/01/22 10:17:49;;;;;;;13.27;12.70;;;24.70;49.10;;;;;;4935997;29;20533;-46
2022/01/22 10:20:34;;;;;;;13.33;12.67;;;24.70;48.50;;;;;;4935671;29;20516;-43
2022/01/22 10:23:05;;;;;;;13.77;13.27;;;24.80;48.50;;;;;;4935634;29;20482;-59
2022/01/22 10:25:35;;;;;;;13.63;12.90;;;25.20;48.10;;;;;;4935936;29;20450;-45
2022/01/22 10:28:04;;;;;;;11.23;10.93;;;25.50;47.50;;;;;;4935758;29;20958;-46
2022/01/22 10:30:39;;;;;;;12.20;11.73;;;25.60;46.90;;;;;;4933873;29;20463;-44
2022/01/22 10:33:20;;;;;;;13.40;12.90;;;25.50;46.80;;;;;;4916524;29;20890;-42
2022/01/22 10:35:48;;;;;;;14.10;13.33;;;25.40;46.80;;;;;;4916746;29;20450;-50
2022/01/22 10:38:17;;;;;;;11.97;11.53;;;25.40;47.00;;;;;;4917925;29;20446;-50
2022/01/22 10:40:45;;;;;;;12.67;12.33;;;25.20;47.30;;;;;;4920683;29;20560;-43
2022/01/22 10:43:20;;;;;;;13.20;12.60;;;25.20;47.40;;;;;;4936402;29;20446;-53
2022/01/22 10:46:10;;;;;;;12.47;11.90;;;25.00;47.40;;;;;;4936035;29;20453;-50
2022/01/22 10:48:39;;;;;;;11.63;11.23;;;25.00;47.80;;;;;;4924089;29;20453;-54
2022/01/22 10:51:09;;;;;;;12.95;12.38;;;25.20;48.10;;;;;;4917580;29;20451;-51
2022/01/22 10:53:41;;;;;;;11.30;11.00;;;25.40;47.50;;;;;;4918789;29;20257;-49
2022/01/22 10:56:08;;;;;;;11.10;10.80;;;25.60;46.80;;;;;;4925820;29;20477;-51
2022/01/22 10:58:35;;;;;;;13.10;12.60;;;25.40;46.40;;;;;;4936015;29;20454;-46
2022/01/22 11:01:05;;;;;;;12.13;11.70;;;25.60;46.50;;;;;;4935607;29;20491;-47
2022/01/22 11:03:32;;;;;;;12.20;11.80;;;25.60;46.20;;;;;;4935375;29;20445;-47
2022/01/22 11:06:05;;;;;;;12.43;11.93;;;25.50;46.30;;;;;;4929032;29;20497;-44
2022/01/22 11:08:33;;;;;;;10.70;10.40;;;25.60;46.20;;;;;;4916429;29;20454;-54
2022/01/22 11:11:02;;;;;;;10.40;10.10;;;25.70;46.90;;;;;;4915989;29;20442;-48
2022/01/22 11:13:29;;;;;;;10.50;10.17;;;25.90;46.20;;;;;;4916058;29;20549;-48
2022/01/22 11:15:57;;;;;;;11.83;11.30;;;26.10;45.70;;;;;;4915818;29;20824;-49
2022/01/22 11:18:24;;;;;;;12.37;11.87;;;26.10;45.40;;;;;;4926831;29;20863;-46
2022/01/22 11:20:53;;;;;;;11.87;11.50;;;26.10;44.40;;;;;;4934846;29;20493;-45
2022/01/22 11:23:21;;;;;;;12.90;12.40;;;26.00;44.20;;;;;;4935188;29;20450;-49
2022/01/22 11:25:48;;;;;;;12.03;11.63;;;25.80;44.80;;;;;;4934935;29;20453;-47
2022/01/22 11:28:16;;;;;;;13.20;12.70;;;25.70;45.10;;;;;;4934799;29;20959;-49
2022/01/22 11:30:46;;;;;;;11.67;11.27;;;25.60;45.20;;;;;;4920597;29;20451;-47
2022/01/22 11:33:17;;;;;;;12.77;12.37;;;25.60;45.20;;;;;;4916640;29;20462;-48
2022/01/22 11:35:54;;;;;;;12.20;11.80;;;25.60;45.30;;;;;;4915817;29;20490;-46
2022/01/22 11:38:28;;;;;;;11.30;11.00;;;25.70;45.40;;;;;;4917141;29;20458;-51
2022/01/22 11:41:07;;;;;;;10.45;9.85;;;26.00;45.00;;;;;;4918769;29;20472;-48
2022/01/22 11:43:59;;;;;;;12.13;11.70;;;26.10;44.90;;;;;;4936874;29;20208;-45
2022/01/22 11:46:30;;;;;;;11.43;11.13;;;26.00;44.70;;;;;;4936817;29;20473;-45
2022/01/22 11:49:14;;;;;;;11.30;10.97;;;26.00;44.70;;;;;;4936909;29;20880;-46
2022/01/22 11:51:42;;;;;;;12.10;11.70;;;25.80;44.60;;;;;;4936297;29;20456;-46
2022/01/22 11:54:09;;;;;;;11.67;11.17;;;25.70;44.90;;;;;;4923515;29;20454;-50
2022/01/22 11:56:47;;;;;;;11.07;10.67;;;25.80;44.90;;;;;;4915527;29;20470;-46
2022/01/22 11:59:30;;;;;;;10.70;10.40;;;26.10;44.80;;;;;;4916643;29;20442;-44
2022/01/22 12:02:03;;;;;;;10.30;9.97;;;26.30;44.40;;;;;;4916576;29;20493;-44
2022/01/22 12:04:48;;;;;;;11.40;10.80;;;26.30;44.10;;;;;;4916893;29;20483;-46
2022/01/22 12:07:17;;;;;;;10.67;10.37;;;26.20;44.00;;;;;;4935089;29;20939;-48
2022/01/22 12:09:53;;;;;;;11.33;10.93;;;26.10;44.10;;;;;;4935059;29;20622;-48
2022/01/22 12:15:12;;;;;;;10.82;10.50;;;25.90;44.10;;;;;;4934434;29;20432;-47
2022/01/22 12:18:06;;;;;;;11.57;11.17;;;25.80;44.40;;;;;;4927032;29;20685;-45
2022/01/22 12:23:56;;;;;;;12.90;12.40;;;26.10;44.60;;;;;;4915727;29;20514;-47
2022/01/22 12:26:48;;;;;;;10.15;9.85;;;26.40;43.90;;;;;;4928244;29;20532;-45
2022/01/22 12:29:59;;;;;;;11.73;11.33;;;26.30;44.10;;;;;;4934131;29;20269;-47
2022/01/22 12:32:34;;;;;;;10.90;10.60;;;26.30;43.30;;;;;;4934093;29;20442;-48
2022/01/22 12:35:11;;;;;;;12.77;12.27;;;26.20;43.30;;;;;;4932149;29;20520;-48
2022/01/22 12:37:43;;;;;;;10.97;10.57;;;26.10;43.50;;;;;;4915789;29;20556;-49
2022/01/22 12:40:14;;;;;;;11.33;11.03;;;26.00;43.90;;;;;;4915775;29;20451;-53
2022/01/22 12:43:02;;;;;;;11.90;11.40;;;25.90;44.30;;;;;;4926702;29;20841;-47
2022/01/22 12:45:29;;;;;;;12.37;11.77;;;25.90;44.70;;;;;;4933887;29;20449;-56
2022/01/22 12:48:04;;;;;;;9.98;9.57;;;26.00;44.70;;;;;;4935996;29;20533;-54
2022/01/22 12:50:37;;;;;;;11.60;11.30;;;26.30;44.30;;;;;;4937534;29;20638;-55
2022/01/22 12:53:26;;;;;;;10.20;9.90;;;26.30;44.20;;;;;;4925530;29;20454;-51
2022/01/22 12:56:25;;;;;;;10.67;10.37;;;26.20;44.50;;;;;;4914515;29;20470;-50
2022/01/22 12:58:50;;;;;;;11.10;10.70;;;26.10;44.70;;;;;;4918856;29;20956;-51
2022/01/22 13:01:21;;;;;;;12.23;11.83;;;25.90;45.00;;;;;;4918708;29;20844;-51
2022/01/22 13:03:51;;;;;;;10.03;9.73;;;25.80;45.10;;;;;;4918486;29;20447;-50
2022/01/22 13:06:19;;;;;;;10.67;10.37;;;25.70;45.40;;;;;;4918155;29;20517;-49
2022/01/22 13:08:46;;;;;;;10.20;9.83;;;25.80;45.50;;;;;;4918348;29;20458;-48
2022/01/22 13:11:17;;;;;;;9.43;9.13;;;26.00;45.40;;;;;;4917449;29;20469;-50
2022/01/22 13:13:47;;;;;;;11.07;10.67;;;26.30;45.00;;;;;;4918336;29;20297;-50
2022/01/22 13:16:17;;;;;;;10.57;10.27;;;26.70;44.20;;;;;;4918199;29;20474;-48
2022/01/22 13:18:47;;;;;;;10.07;9.73;;;26.80;43.80;;;;;;4917993;29;20996;-53
2022/01/22 13:21:16;;;;;;;12.30;11.90;;;26.70;43.80;;;;;;4918186;29;21070;-54
2022/01/22 13:23:46;;;;;;;11.70;11.20;;;26.60;44.40;;;;;;4920275;29;20449;-50
2022/01/22 13:26:13;;;;;;;12.73;11.73;;;26.50;45.10;;;;;;4918200;29;20474;-50
2022/01/22 13:28:40;;;;;;;13.20;12.40;;;26.40;45.80;;;;;;4918015;29;20466;-50
2022/01/22 13:31:12;;;;;;;14.43;13.60;;;26.30;47.00;;;;;;4917831;29;20450;-53
2022/01/22 13:33:45;;;;;;;14.37;13.30;;;26.20;47.70;;;;;;4918061;29;20482;-55
2022/01/22 13:36:23;;;;;;;13.07;10.97;;;26.20;48.70;;;;;;4925600;29;20477;-54
2022/01/22 13:39:37;;;;;;;12.33;11.47;;;26.50;49.20;;;;;;4936929;29;20455;-50
2022/01/22 13:45:20;;;;;;;12.33;11.40;;;26.70;48.00;;;;;;4936796;29;20497;-52
2022/01/22 13:47:53;;;;;;;13.37;11.90;;;26.60;48.10;;;;;;4929764;29;20486;-47
2022/01/22 13:50:21;;;;;;;11.82;10.90;;;26.60;48.70;;;;;;4917600;29;20454;-50
2022/01/22 13:52:48;;;;;;;12.87;11.83;;;26.40;48.50;;;;;;4917725;29;20206;-47
2022/01/22 13:55:17;;;;;;;13.03;12.03;;;26.30;48.60;;;;;;4917548;29;20466;-51
2022/01/22 13:57:47;;;;;;;11.60;11.10;;;26.30;48.10;;;;;;4917113;29;20470;-51
2022/01/22 14:00:17;;;;;;;11.87;11.20;;;26.30;47.90;;;;;;4917168;29;20490;-53
2022/01/22 14:03:05;;;;;;;13.60;12.73;;;26.10;47.70;;;;;;4917655;29;21074;-54
2022/01/22 14:05:32;;;;;;;12.50;11.70;;;26.10;47.50;;;;;;4917516;29;20450;-50
2022/01/22 14:08:01;;;;;;;12.07;11.27;;;25.90;47.40;;;;;;4917299;29;20478;-53
2022/01/22 14:10:31;;;;;;;11.53;10.83;;;25.90;47.40;;;;;;4917537;29;20999;-53